sensor_id;sensor_type;location;lat;lon;timestamp;P1;durP1;ratioP1;P2;durP2;ratioP2
11151;SDS011;5630;49.342;10.802;2022-08-21T00:01:43;6.10;;;5.23;;
11151;SDS011;5630;49.342;10.802;2022-08-21T00:04:09;5.17;;;4.77;;
11151;SDS011;5630;49.342;10.802;2022-08-21T00:06:35;5.60;;;5.10;;
11151;SDS011;5630;49.342;10.802;2022-08-21T00:09:02;6.10;;;5.50;;
11151;SDS011;5630;49.342;10.802;2022-08-21T00:11:29;4.83;;;4.33;;
11151;SDS011;5630;49.342;10.802;2022-08-21T00:13:55;5.63;;;5.13;;
11151;SDS011;5630;49.342;10.802;2022-08-21T00:16:21;7.10;;;5.50;;
11151;SDS011;5630;49.342;10.802;2022-08-21T00:18:46;7.50;;;5.20;;
11151;SDS011;5630;49.342;10.802;2022-08-21T00:21:12;5.93;;;5.30;;
11151;SDS011;5630;49.342;10.802;2022-08-21T00:23:39;5.57;;;4.90;;
11151;SDS011;5630;49.342;10.802;2022-08-21T00:26:05;5.37;;;4.87;;
11151;SDS011;5630;49.342;10.802;2022-08-21T00:28:31;5.80;;;5.20;;
11151;SDS011;5630;49.342;10.802;2022-08-21T00:30:56;5.10;;;4.60;;
11151;SDS011;5630;49.342;10.802;2022-08-21T00:33:23;4.90;;;4.50;;
11151;SDS011;5630;49.342;10.802;2022-08-21T00:35:50;5.33;;;4.83;;
11151;SDS011;5630;49.342;10.802;2022-08-21T00:38:16;4.40;;;3.97;;
11151;SDS011;5630;49.342;10.802;2022-08-21T00:40:48;5.27;;;4.77;;
11151;SDS011;5630;49.342;10.802;2022-08-21T00:43:17;6.63;;;5.00;;
11151;SDS011;5630;49.342;10.802;2022-08-21T00:45:45;5.30;;;4.83;;
11151;SDS011;5630;49.342;10.802;2022-08-21T00:48:11;5.00;;;4.60;;
11151;SDS011;5630;49.342;10.802;2022-08-21T00:50:38;7.10;;;4.93;;
11151;SDS011;5630;49.342;10.802;2022-08-21T00:53:09;5.20;;;4.80;;
11151;SDS011;5630;49.342;10.802;2022-08-21T00:55:36;5.23;;;4.73;;
11151;SDS011;5630;49.342;10.802;2022-08-21T00:58:03;5.00;;;4.60;;
11151;SDS011;5630;49.342;10.802;2022-08-21T01:00:33;6.17;;;5.13;;
11151;SDS011;5630;49.342;10.802;2022-08-21T01:03:04;5.30;;;4.80;;
11151;SDS011;5630;49.342;10.802;2022-08-21T01:05:33;5.50;;;5.00;;
11151;SDS011;5630;49.342;10.802;2022-08-21T01:07:58;5.20;;;4.70;;
11151;SDS011;5630;49.342;10.802;2022-08-21T01:10:24;5.23;;;4.80;;
11151;SDS011;5630;49.342;10.802;2022-08-21T01:12:54;6.03;;;5.43;;
11151;SDS011;5630;49.342;10.802;2022-08-21T01:15:21;5.63;;;5.10;;
11151;SDS011;5630;49.342;10.802;2022-08-21T01:17:49;5.97;;;5.37;;
11151;SDS011;5630;49.342;10.802;2022-08-21T01:20:16;5.73;;;5.23;;
11151;SDS011;5630;49.342;10.802;2022-08-21T01:22:42;9.40;;;5.43;;
11151;SDS011;5630;49.342;10.802;2022-08-21T01:25:11;6.57;;;5.80;;
11151;SDS011;5630;49.342;10.802;2022-08-21T01:27:39;6.20;;;5.70;;
11151;SDS011;5630;49.342;10.802;2022-08-21T01:30:10;6.43;;;5.03;;
11151;SDS011;5630;49.342;10.802;2022-08-21T01:32:48;6.87;;;5.20;;
11151;SDS011;5630;49.342;10.802;2022-08-21T01:35:15;6.33;;;5.83;;
11151;SDS011;5630;49.342;10.802;2022-08-21T01:37:42;6.07;;;5.57;;
11151;SDS011;5630;49.342;10.802;2022-08-21T01:40:08;6.10;;;5.50;;
11151;SDS011;5630;49.342;10.802;2022-08-21T01:42:35;5.37;;;4.90;;
11151;SDS011;5630;49.342;10.802;2022-08-21T01:45:02;5.93;;;5.43;;
11151;SDS011;5630;49.342;10.802;2022-08-21T01:47:28;6.43;;;5.40;;
11151;SDS011;5630;49.342;10.802;2022-08-21T01:49:53;5.77;;;5.17;;
11151;SDS011;5630;49.342;10.802;2022-08-21T01:52:19;7.00;;;5.70;;
11151;SDS011;5630;49.342;10.802;2022-08-21T01:54:45;6.07;;;5.47;;
11151;SDS011;5630;49.342;10.802;2022-08-21T01:57:11;5.30;;;4.70;;
11151;SDS011;5630;49.342;10.802;2022-08-21T01:59:37;7.07;;;5.87;;
11151;SDS011;5630;49.342;10.802;2022-08-21T02:02:04;5.17;;;4.67;;
11151;SDS011;5630;49.342;10.802;2022-08-21T02:04:30;6.10;;;5.10;;
11151;SDS011;5630;49.342;10.802;2022-08-21T02:06:56;6.00;;;5.40;;
11151;SDS011;5630;49.342;10.802;2022-08-21T02:09:22;6.00;;;5.50;;
11151;SDS011;5630;49.342;10.802;2022-08-21T02:11:48;6.10;;;5.50;;
11151;SDS011;5630;49.342;10.802;2022-08-21T02:14:13;5.17;;;4.70;;
11151;SDS011;5630;49.342;10.802;2022-08-21T02:16:41;5.90;;;5.30;;
11151;SDS011;5630;49.342;10.802;2022-08-21T02:19:08;5.93;;;5.33;;
11151;SDS011;5630;49.342;10.802;2022-08-21T02:21:35;7.50;;;5.50;;
11151;SDS011;5630;49.342;10.802;2022-08-21T02:24:00;5.37;;;4.90;;
11151;SDS011;5630;49.342;10.802;2022-08-21T02:26:26;6.27;;;5.33;;
11151;SDS011;5630;49.342;10.802;2022-08-21T02:28:52;5.67;;;5.27;;
11151;SDS011;5630;49.342;10.802;2022-08-21T02:31:18;5.57;;;5.17;;
11151;SDS011;5630;49.342;10.802;2022-08-21T02:33:43;7.50;;;5.90;;
11151;SDS011;5630;49.342;10.802;2022-08-21T02:36:10;5.93;;;5.43;;
11151;SDS011;5630;49.342;10.802;2022-08-21T02:38:37;6.00;;;5.50;;
11151;SDS011;5630;49.342;10.802;2022-08-21T02:41:08;6.07;;;5.40;;
11151;SDS011;5630;49.342;10.802;2022-08-21T02:43:37;5.97;;;5.40;;
11151;SDS011;5630;49.342;10.802;2022-08-21T02:46:05;5.93;;;5.43;;
11151;SDS011;5630;49.342;10.802;2022-08-21T02:48:32;5.77;;;5.27;;
11151;SDS011;5630;49.342;10.802;2022-08-21T02:50:59;5.63;;;5.23;;
11151;SDS011;5630;49.342;10.802;2022-08-21T02:53:32;6.17;;;5.40;;
11151;SDS011;5630;49.342;10.802;2022-08-21T02:56:00;6.20;;;5.70;;
11151;SDS011;5630;49.342;10.802;2022-08-21T02:58:29;6.73;;;6.03;;
11151;SDS011;5630;49.342;10.802;2022-08-21T03:00:57;7.00;;;6.30;;
11151;SDS011;5630;49.342;10.802;2022-08-21T03:03:23;7.33;;;6.47;;
11151;SDS011;5630;49.342;10.802;2022-08-21T03:05:50;6.30;;;5.70;;
11151;SDS011;5630;49.342;10.802;2022-08-21T03:08:16;6.63;;;5.70;;
11151;SDS011;5630;49.342;10.802;2022-08-21T03:10:43;6.53;;;5.93;;
11151;SDS011;5630;49.342;10.802;2022-08-21T03:13:12;6.80;;;6.03;;
11151;SDS011;5630;49.342;10.802;2022-08-21T03:15:38;6.43;;;5.83;;
11151;SDS011;5630;49.342;10.802;2022-08-21T03:18:05;6.47;;;5.97;;
11151;SDS011;5630;49.342;10.802;2022-08-21T03:20:32;7.23;;;5.43;;
11151;SDS011;5630;49.342;10.802;2022-08-21T03:23:00;6.37;;;5.83;;
11151;SDS011;5630;49.342;10.802;2022-08-21T03:25:26;6.00;;;5.50;;
11151;SDS011;5630;49.342;10.802;2022-08-21T03:27:52;8.23;;;6.07;;
11151;SDS011;5630;49.342;10.802;2022-08-21T03:30:19;9.90;;;6.00;;
11151;SDS011;5630;49.342;10.802;2022-08-21T03:32:48;6.43;;;5.83;;
11151;SDS011;5630;49.342;10.802;2022-08-21T03:35:15;7.13;;;5.70;;
11151;SDS011;5630;49.342;10.802;2022-08-21T03:37:41;7.27;;;5.67;;
11151;SDS011;5630;49.342;10.802;2022-08-21T03:40:08;6.20;;;5.60;;
11151;SDS011;5630;49.342;10.802;2022-08-21T03:42:34;5.73;;;5.17;;
11151;SDS011;5630;49.342;10.802;2022-08-21T03:45:00;6.40;;;5.80;;
11151;SDS011;5630;49.342;10.802;2022-08-21T03:47:27;7.67;;;6.10;;
11151;SDS011;5630;49.342;10.802;2022-08-21T03:49:53;8.07;;;6.33;;
11151;SDS011;5630;49.342;10.802;2022-08-21T03:52:19;7.67;;;7.00;;
11151;SDS011;5630;49.342;10.802;2022-08-21T03:54:45;7.53;;;6.90;;
11151;SDS011;5630;49.342;10.802;2022-08-21T03:57:11;7.17;;;6.47;;
11151;SDS011;5630;49.342;10.802;2022-08-21T03:59:37;7.93;;;6.50;;
11151;SDS011;5630;49.342;10.802;2022-08-21T04:02:04;6.97;;;6.37;;
11151;SDS011;5630;49.342;10.802;2022-08-21T04:04:31;7.23;;;6.50;;
11151;SDS011;5630;49.342;10.802;2022-08-21T04:06:58;8.50;;;5.60;;
11151;SDS011;5630;49.342;10.802;2022-08-21T04:09:24;7.10;;;6.40;;
11151;SDS011;5630;49.342;10.802;2022-08-21T04:11:50;7.20;;;6.50;;
11151;SDS011;5630;49.342;10.802;2022-08-21T04:14:16;6.53;;;5.93;;
11151;SDS011;5630;49.342;10.802;2022-08-21T04:16:42;7.70;;;5.90;;
11151;SDS011;5630;49.342;10.802;2022-08-21T04:19:08;7.03;;;5.23;;
11151;SDS011;5630;49.342;10.802;2022-08-21T04:21:37;7.10;;;6.40;;
11151;SDS011;5630;49.342;10.802;2022-08-21T04:24:04;8.80;;;6.80;;
11151;SDS011;5630;49.342;10.802;2022-08-21T04:26:32;6.80;;;6.20;;
11151;SDS011;5630;49.342;10.802;2022-08-21T04:28:59;6.87;;;5.50;;
11151;SDS011;5630;49.342;10.802;2022-08-21T04:31:26;7.20;;;6.50;;
11151;SDS011;5630;49.342;10.802;2022-08-21T04:33:53;6.63;;;6.00;;
11151;SDS011;5630;49.342;10.802;2022-08-21T04:36:19;7.77;;;6.03;;
11151;SDS011;5630;49.342;10.802;2022-08-21T04:38:44;6.50;;;5.77;;
11151;SDS011;5630;49.342;10.802;2022-08-21T04:41:10;6.93;;;6.23;;
11151;SDS011;5630;49.342;10.802;2022-08-21T04:43:37;6.70;;;6.10;;
11151;SDS011;5630;49.342;10.802;2022-08-21T04:46:03;6.90;;;6.30;;
11151;SDS011;5630;49.342;10.802;2022-08-21T04:48:28;7.03;;;6.20;;
11151;SDS011;5630;49.342;10.802;2022-08-21T04:50:56;7.23;;;6.63;;
11151;SDS011;5630;49.342;10.802;2022-08-21T04:53:28;7.70;;;7.00;;
11151;SDS011;5630;49.342;10.802;2022-08-21T04:56:24;8.17;;;7.47;;
11151;SDS011;5630;49.342;10.802;2022-08-21T04:58:53;6.90;;;6.27;;
11151;SDS011;5630;49.342;10.802;2022-08-21T05:01:22;9.90;;;7.50;;
11151;SDS011;5630;49.342;10.802;2022-08-21T05:03:50;7.73;;;7.10;;
11151;SDS011;5630;49.342;10.802;2022-08-21T05:06:20;9.17;;;6.47;;
11151;SDS011;5630;49.342;10.802;2022-08-21T05:08:47;4.30;;;3.90;;
11151;SDS011;5630;49.342;10.802;2022-08-21T05:11:15;4.00;;;3.70;;
11151;SDS011;5630;49.342;10.802;2022-08-21T05:13:41;3.63;;;3.33;;
11151;SDS011;5630;49.342;10.802;2022-08-21T05:16:07;6.17;;;5.67;;
11151;SDS011;5630;49.342;10.802;2022-08-21T05:18:33;9.27;;;7.90;;
11151;SDS011;5630;49.342;10.802;2022-08-21T05:20:59;10.40;;;8.10;;
11151;SDS011;5630;49.342;10.802;2022-08-21T05:23:24;9.57;;;8.50;;
11151;SDS011;5630;49.342;10.802;2022-08-21T05:25:51;11.07;;;8.37;;
11151;SDS011;5630;49.342;10.802;2022-08-21T05:28:18;11.33;;;9.30;;
11151;SDS011;5630;49.342;10.802;2022-08-21T05:30:43;10.63;;;9.63;;
11151;SDS011;5630;49.342;10.802;2022-08-21T05:33:09;12.13;;;10.87;;
11151;SDS011;5630;49.342;10.802;2022-08-21T05:35:35;13.83;;;10.73;;
11151;SDS011;5630;49.342;10.802;2022-08-21T05:38:02;12.63;;;11.37;;
11151;SDS011;5630;49.342;10.802;2022-08-21T05:40:28;13.60;;;12.00;;
11151;SDS011;5630;49.342;10.802;2022-08-21T05:42:54;18.83;;;13.07;;
11151;SDS011;5630;49.342;10.802;2022-08-21T05:45:25;19.83;;;17.13;;
11151;SDS011;5630;49.342;10.802;2022-08-21T05:47:53;19.50;;;16.57;;
11151;SDS011;5630;49.342;10.802;2022-08-21T05:50:19;17.47;;;15.17;;
11151;SDS011;5630;49.342;10.802;2022-08-21T05:52:46;18.60;;;16.80;;
11151;SDS011;5630;49.342;10.802;2022-08-21T05:55:12;19.10;;;16.90;;
11151;SDS011;5630;49.342;10.802;2022-08-21T05:57:38;18.43;;;16.43;;
11151;SDS011;5630;49.342;10.802;2022-08-21T06:00:06;17.90;;;16.00;;
11151;SDS011;5630;49.342;10.802;2022-08-21T06:02:34;17.27;;;15.57;;
11151;SDS011;5630;49.342;10.802;2022-08-21T06:05:00;18.03;;;16.30;;
11151;SDS011;5630;49.342;10.802;2022-08-21T06:07:26;18.27;;;16.00;;
11151;SDS011;5630;49.342;10.802;2022-08-21T06:09:52;15.33;;;13.83;;
11151;SDS011;5630;49.342;10.802;2022-08-21T06:12:17;17.07;;;15.43;;
11151;SDS011;5630;49.342;10.802;2022-08-21T06:14:43;17.37;;;15.73;;
11151;SDS011;5630;49.342;10.802;2022-08-21T06:17:10;14.67;;;13.17;;
11151;SDS011;5630;49.342;10.802;2022-08-21T06:19:37;18.60;;;14.90;;
11151;SDS011;5630;49.342;10.802;2022-08-21T06:22:03;18.57;;;16.20;;
11151;SDS011;5630;49.342;10.802;2022-08-21T06:24:29;17.93;;;16.03;;
11151;SDS011;5630;49.342;10.802;2022-08-21T06:26:55;16.77;;;15.13;;
11151;SDS011;5630;49.342;10.802;2022-08-21T06:29:22;16.53;;;14.93;;
11151;SDS011;5630;49.342;10.802;2022-08-21T06:31:48;15.50;;;14.00;;
11151;SDS011;5630;49.342;10.802;2022-08-21T06:34:15;16.40;;;14.23;;
11151;SDS011;5630;49.342;10.802;2022-08-21T06:36:40;17.33;;;14.67;;
11151;SDS011;5630;49.342;10.802;2022-08-21T06:39:06;16.43;;;14.73;;
11151;SDS011;5630;49.342;10.802;2022-08-21T06:41:32;15.53;;;13.93;;
11151;SDS011;5630;49.342;10.802;2022-08-21T06:43:58;14.80;;;13.40;;
11151;SDS011;5630;49.342;10.802;2022-08-21T06:46:24;14.63;;;13.07;;
11151;SDS011;5630;49.342;10.802;2022-08-21T06:48:51;14.23;;;12.70;;
11151;SDS011;5630;49.342;10.802;2022-08-21T06:51:17;14.43;;;12.83;;
11151;SDS011;5630;49.342;10.802;2022-08-21T06:53:42;14.67;;;13.27;;
11151;SDS011;5630;49.342;10.802;2022-08-21T06:56:08;14.47;;;13.07;;
11151;SDS011;5630;49.342;10.802;2022-08-21T06:58:34;12.53;;;11.33;;
11151;SDS011;5630;49.342;10.802;2022-08-21T07:01:00;13.97;;;12.63;;
11151;SDS011;5630;49.342;10.802;2022-08-21T07:03:26;12.03;;;10.83;;
11151;SDS011;5630;49.342;10.802;2022-08-21T07:05:58;11.27;;;10.07;;
11151;SDS011;5630;49.342;10.802;2022-08-21T07:08:24;10.30;;;9.23;;
11151;SDS011;5630;49.342;10.802;2022-08-21T07:10:51;11.13;;;9.77;;
11151;SDS011;5630;49.342;10.802;2022-08-21T07:13:18;11.97;;;10.77;;
11151;SDS011;5630;49.342;10.802;2022-08-21T07:15:44;11.73;;;10.53;;
11151;SDS011;5630;49.342;10.802;2022-08-21T07:18:10;11.33;;;9.50;;
11151;SDS011;5630;49.342;10.802;2022-08-21T07:20:36;9.87;;;8.97;;
11151;SDS011;5630;49.342;10.802;2022-08-21T07:23:05;9.43;;;8.43;;
11151;SDS011;5630;49.342;10.802;2022-08-21T07:25:34;11.20;;;10.10;;
11151;SDS011;5630;49.342;10.802;2022-08-21T07:27:59;9.73;;;8.83;;
11151;SDS011;5630;49.342;10.802;2022-08-21T07:30:26;14.07;;;9.57;;
11151;SDS011;5630;49.342;10.802;2022-08-21T07:32:52;11.40;;;9.47;;
11151;SDS011;5630;49.342;10.802;2022-08-21T07:35:18;10.83;;;9.73;;
11151;SDS011;5630;49.342;10.802;2022-08-21T07:37:45;11.57;;;10.40;;
11151;SDS011;5630;49.342;10.802;2022-08-21T07:40:11;10.53;;;9.53;;
11151;SDS011;5630;49.342;10.802;2022-08-21T07:42:41;11.47;;;10.27;;
11151;SDS011;5630;49.342;10.802;2022-08-21T07:45:12;11.17;;;10.07;;
11151;SDS011;5630;49.342;10.802;2022-08-21T07:47:38;10.50;;;8.93;;
11151;SDS011;5630;49.342;10.802;2022-08-21T07:50:05;11.67;;;10.67;;
11151;SDS011;5630;49.342;10.802;2022-08-21T07:52:31;13.57;;;11.17;;
11151;SDS011;5630;49.342;10.802;2022-08-21T07:54:58;10.40;;;8.93;;
11151;SDS011;5630;49.342;10.802;2022-08-21T07:57:24;12.53;;;11.10;;
11151;SDS011;5630;49.342;10.802;2022-08-21T07:59:49;12.03;;;10.83;;
11151;SDS011;5630;49.342;10.802;2022-08-21T08:02:22;12.67;;;10.30;;
11151;SDS011;5630;49.342;10.802;2022-08-21T08:04:49;10.00;;;9.10;;
11151;SDS011;5630;49.342;10.802;2022-08-21T08:07:15;12.03;;;10.93;;
11151;SDS011;5630;49.342;10.802;2022-08-21T08:09:41;11.03;;;10.07;;
11151;SDS011;5630;49.342;10.802;2022-08-21T08:12:06;11.70;;;10.47;;
11151;SDS011;5630;49.342;10.802;2022-08-21T08:14:32;10.07;;;9.07;;
11151;SDS011;5630;49.342;10.802;2022-08-21T08:16:58;10.93;;;9.87;;
11151;SDS011;5630;49.342;10.802;2022-08-21T08:19:24;9.90;;;9.00;;
11151;SDS011;5630;49.342;10.802;2022-08-21T08:21:49;11.10;;;10.10;;
11151;SDS011;5630;49.342;10.802;2022-08-21T08:24:15;11.00;;;9.97;;
11151;SDS011;5630;49.342;10.802;2022-08-21T08:26:41;11.57;;;9.60;;
11151;SDS011;5630;49.342;10.802;2022-08-21T08:29:06;10.23;;;9.27;;
11151;SDS011;5630;49.342;10.802;2022-08-21T08:31:32;10.70;;;9.77;;
11151;SDS011;5630;49.342;10.802;2022-08-21T08:33:58;9.93;;;7.73;;
11151;SDS011;5630;49.342;10.802;2022-08-21T08:36:31;9.03;;;8.17;;
11151;SDS011;5630;49.342;10.802;2022-08-21T08:38:58;9.73;;;7.63;;
11151;SDS011;5630;49.342;10.802;2022-08-21T08:41:25;9.00;;;8.20;;
11151;SDS011;5630;49.342;10.802;2022-08-21T08:43:52;10.50;;;7.70;;
11151;SDS011;5630;49.342;10.802;2022-08-21T08:46:20;8.70;;;7.90;;
11151;SDS011;5630;49.342;10.802;2022-08-21T08:48:57;8.47;;;7.77;;
11151;SDS011;5630;49.342;10.802;2022-08-21T08:54:07;8.17;;;7.37;;
11151;SDS011;5630;49.342;10.802;2022-08-21T08:56:37;12.50;;;7.67;;
11151;SDS011;5630;49.342;10.802;2022-08-21T08:59:50;9.40;;;8.40;;
11151;SDS011;5630;49.342;10.802;2022-08-21T09:01:57;8.43;;;7.60;;
11151;SDS011;5630;49.342;10.802;2022-08-21T09:04:23;8.13;;;7.43;;
11151;SDS011;5630;49.342;10.802;2022-08-21T09:07:08;8.37;;;7.60;;
11151;SDS011;5630;49.342;10.802;2022-08-21T09:09:51;8.27;;;7.23;;
11151;SDS011;5630;49.342;10.802;2022-08-21T09:20:56;7.53;;;6.83;;
11151;SDS011;5630;49.342;10.802;2022-08-21T09:25:53;6.57;;;5.97;;
11151;SDS011;5630;49.342;10.802;2022-08-21T09:28:26;6.03;;;5.53;;
11151;SDS011;5630;49.342;10.802;2022-08-21T09:30:54;9.20;;;7.00;;
11151;SDS011;5630;49.342;10.802;2022-08-21T09:33:22;7.50;;;6.80;;
11151;SDS011;5630;49.342;10.802;2022-08-21T09:35:50;4.73;;;4.13;;
11151;SDS011;5630;49.342;10.802;2022-08-21T09:38:31;5.10;;;4.57;;
11151;SDS011;5630;49.342;10.802;2022-08-21T09:41:03;7.13;;;6.43;;
11151;SDS011;5630;49.342;10.802;2022-08-21T09:43:31;6.87;;;6.27;;
11151;SDS011;5630;49.342;10.802;2022-08-21T09:46:02;5.53;;;5.03;;
11151;SDS011;5630;49.342;10.802;2022-08-21T09:48:29;4.33;;;4.00;;
11151;SDS011;5630;49.342;10.802;2022-08-21T09:51:09;6.50;;;5.10;;
11151;SDS011;5630;49.342;10.802;2022-08-21T09:53:44;6.57;;;4.80;;
11151;SDS011;5630;49.342;10.802;2022-08-21T09:59:24;5.13;;;4.30;;
11151;SDS011;5630;49.342;10.802;2022-08-21T10:01:56;8.57;;;5.07;;
11151;SDS011;5630;49.342;10.802;2022-08-21T10:04:29;5.13;;;4.70;;
11151;SDS011;5630;49.342;10.802;2022-08-21T10:07:08;6.53;;;5.00;;
11151;SDS011;5630;49.342;10.802;2022-08-21T10:09:35;4.70;;;4.30;;
11151;SDS011;5630;49.342;10.802;2022-08-21T10:12:13;7.37;;;4.53;;
11151;SDS011;5630;49.342;10.802;2022-08-21T10:15:08;5.87;;;3.90;;
11151;SDS011;5630;49.342;10.802;2022-08-21T10:18:08;6.07;;;4.43;;
11151;SDS011;5630;49.342;10.802;2022-08-21T10:34:46;4.47;;;4.00;;
11151;SDS011;5630;49.342;10.802;2022-08-21T10:43:32;4.30;;;3.90;;
11151;SDS011;5630;49.342;10.802;2022-08-21T10:48:58;6.73;;;3.63;;
11151;SDS011;5630;49.342;10.802;2022-08-21T10:54:23;4.37;;;4.03;;
11151;SDS011;5630;49.342;10.802;2022-08-21T10:57:05;4.03;;;3.40;;
11151;SDS011;5630;49.342;10.802;2022-08-21T10:59:39;3.27;;;2.97;;
11151;SDS011;5630;49.342;10.802;2022-08-21T11:02:13;6.10;;;3.37;;
11151;SDS011;5630;49.342;10.802;2022-08-21T11:05:02;4.77;;;3.67;;
11151;SDS011;5630;49.342;10.802;2022-08-21T11:07:37;3.60;;;3.20;;
11151;SDS011;5630;49.342;10.802;2022-08-21T11:10:26;4.50;;;4.10;;
11151;SDS011;5630;49.342;10.802;2022-08-21T11:13:03;4.80;;;3.73;;
11151;SDS011;5630;49.342;10.802;2022-08-21T11:18:21;4.10;;;3.70;;
11151;SDS011;5630;49.342;10.802;2022-08-21T11:20:52;4.23;;;3.87;;
11151;SDS011;5630;49.342;10.802;2022-08-21T11:23:41;5.60;;;3.60;;
11151;SDS011;5630;49.342;10.802;2022-08-21T11:26:15;3.70;;;3.40;;
11151;SDS011;5630;49.342;10.802;2022-08-21T11:28:50;3.37;;;3.17;;
11151;SDS011;5630;49.342;10.802;2022-08-21T11:39:30;5.63;;;3.30;;
11151;SDS011;5630;49.342;10.802;2022-08-21T11:42:21;3.93;;;3.10;;
11151;SDS011;5630;49.342;10.802;2022-08-21T11:44:54;4.70;;;3.03;;
11151;SDS011;5630;49.342;10.802;2022-08-21T11:47:49;4.20;;;3.07;;
11151;SDS011;5630;49.342;10.802;2022-08-21T11:50:26;3.30;;;2.97;;
11151;SDS011;5630;49.342;10.802;2022-08-21T11:52:59;4.70;;;3.20;;
11151;SDS011;5630;49.342;10.802;2022-08-21T11:55:50;3.60;;;3.30;;
11151;SDS011;5630;49.342;10.802;2022-08-21T12:00:58;3.47;;;3.17;;
11151;SDS011;5630;49.342;10.802;2022-08-21T12:03:38;4.60;;;3.43;;
11151;SDS011;5630;49.342;10.802;2022-08-21T12:06:08;3.57;;;3.27;;
11151;SDS011;5630;49.342;10.802;2022-08-21T12:08:38;3.47;;;3.17;;
11151;SDS011;5630;49.342;10.802;2022-08-21T12:14:34;3.80;;;3.43;;
11151;SDS011;5630;49.342;10.802;2022-08-21T12:21:47;3.60;;;3.30;;
11151;SDS011;5630;49.342;10.802;2022-08-21T12:24:19;4.20;;;3.40;;
11151;SDS011;5630;49.342;10.802;2022-08-21T12:26:52;4.10;;;3.40;;
11151;SDS011;5630;49.342;10.802;2022-08-21T12:29:37;4.33;;;3.00;;
11151;SDS011;5630;49.342;10.802;2022-08-21T12:32:04;4.03;;;2.93;;
11151;SDS011;5630;49.342;10.802;2022-08-21T12:35:02;3.40;;;3.10;;
11151;SDS011;5630;49.342;10.802;2022-08-21T12:37:40;2.90;;;2.70;;
11151;SDS011;5630;49.342;10.802;2022-08-21T12:40:17;3.97;;;3.20;;
11151;SDS011;5630;49.342;10.802;2022-08-21T12:42:48;3.17;;;2.77;;
11151;SDS011;5630;49.342;10.802;2022-08-21T12:45:21;4.03;;;2.90;;
11151;SDS011;5630;49.342;10.802;2022-08-21T12:48:02;2.80;;;2.60;;
11151;SDS011;5630;49.342;10.802;2022-08-21T12:53:10;2.97;;;2.67;;
11151;SDS011;5630;49.342;10.802;2022-08-21T12:55:46;4.10;;;2.93;;
11151;SDS011;5630;49.342;10.802;2022-08-21T13:00:52;3.07;;;2.80;;
11151;SDS011;5630;49.342;10.802;2022-08-21T13:03:22;2.60;;;2.40;;
11151;SDS011;5630;49.342;10.802;2022-08-21T13:05:48;3.83;;;3.10;;
11151;SDS011;5630;49.342;10.802;2022-08-21T13:08:17;7.03;;;2.93;;
11151;SDS011;5630;49.342;10.802;2022-08-21T13:10:45;3.13;;;2.87;;
11151;SDS011;5630;49.342;10.802;2022-08-21T13:13:21;3.50;;;3.10;;
11151;SDS011;5630;49.342;10.802;2022-08-21T13:15:48;3.40;;;3.10;;
11151;SDS011;5630;49.342;10.802;2022-08-21T13:18:21;3.37;;;3.07;;
11151;SDS011;5630;49.342;10.802;2022-08-21T13:20:49;4.60;;;3.20;;
11151;SDS011;5630;49.342;10.802;2022-08-21T13:25:52;3.47;;;3.17;;
11151;SDS011;5630;49.342;10.802;2022-08-21T13:28:18;7.07;;;2.80;;
11151;SDS011;5630;49.342;10.802;2022-08-21T13:30:48;5.07;;;2.83;;
11151;SDS011;5630;49.342;10.802;2022-08-21T13:33:17;2.70;;;2.50;;
11151;SDS011;5630;49.342;10.802;2022-08-21T13:35:47;3.20;;;2.90;;
11151;SDS011;5630;49.342;10.802;2022-08-21T13:38:13;2.80;;;2.60;;
11151;SDS011;5630;49.342;10.802;2022-08-21T13:40:44;3.30;;;2.70;;
11151;SDS011;5630;49.342;10.802;2022-08-21T13:43:14;4.10;;;3.17;;
11151;SDS011;5630;49.342;10.802;2022-08-21T13:45:44;4.07;;;3.63;;
11151;SDS011;5630;49.342;10.802;2022-08-21T13:48:14;4.80;;;3.40;;
11151;SDS011;5630;49.342;10.802;2022-08-21T13:50:40;4.50;;;3.50;;
11151;SDS011;5630;49.342;10.802;2022-08-21T13:53:18;3.60;;;3.30;;
11151;SDS011;5630;49.342;10.802;2022-08-21T13:55:47;3.60;;;3.30;;
11151;SDS011;5630;49.342;10.802;2022-08-21T13:58:23;3.67;;;3.37;;
11151;SDS011;5630;49.342;10.802;2022-08-21T14:00:51;3.70;;;3.40;;
11151;SDS011;5630;49.342;10.802;2022-08-21T14:06:14;4.63;;;3.60;;
11151;SDS011;5630;49.342;10.802;2022-08-21T14:08:47;4.17;;;3.77;;
11151;SDS011;5630;49.342;10.802;2022-08-21T14:11:18;4.47;;;3.67;;
11151;SDS011;5630;49.342;10.802;2022-08-21T14:13:46;4.47;;;4.07;;
11151;SDS011;5630;49.342;10.802;2022-08-21T14:16:23;3.90;;;3.57;;
11151;SDS011;5630;49.342;10.802;2022-08-21T14:21:36;3.60;;;3.30;;
11151;SDS011;5630;49.342;10.802;2022-08-21T14:24:06;4.60;;;3.60;;
11151;SDS011;5630;49.342;10.802;2022-08-21T14:26:35;3.50;;;3.20;;
11151;SDS011;5630;49.342;10.802;2022-08-21T14:29:08;3.87;;;3.43;;
11151;SDS011;5630;49.342;10.802;2022-08-21T14:31:34;4.17;;;3.40;;
11151;SDS011;5630;49.342;10.802;2022-08-21T14:34:00;3.30;;;3.10;;
11151;SDS011;5630;49.342;10.802;2022-08-21T14:36:26;5.53;;;3.30;;
11151;SDS011;5630;49.342;10.802;2022-08-21T14:38:52;3.50;;;3.20;;
11151;SDS011;5630;49.342;10.802;2022-08-21T14:41:19;3.63;;;3.33;;
11151;SDS011;5630;49.342;10.802;2022-08-21T14:43:47;4.03;;;3.23;;
11151;SDS011;5630;49.342;10.802;2022-08-21T14:46:21;5.23;;;3.30;;
11151;SDS011;5630;49.342;10.802;2022-08-21T14:48:49;4.90;;;3.40;;
11151;SDS011;5630;49.342;10.802;2022-08-21T14:51:14;6.53;;;3.60;;
11151;SDS011;5630;49.342;10.802;2022-08-21T14:53:40;3.77;;;3.47;;
11151;SDS011;5630;49.342;10.802;2022-08-21T14:56:05;4.70;;;3.50;;
11151;SDS011;5630;49.342;10.802;2022-08-21T14:58:32;3.53;;;3.10;;
11151;SDS011;5630;49.342;10.802;2022-08-21T15:00:59;3.73;;;3.43;;
11151;SDS011;5630;49.342;10.802;2022-08-21T15:03:28;4.00;;;3.50;;
11151;SDS011;5630;49.342;10.802;2022-08-21T15:05:56;4.20;;;3.80;;
11151;SDS011;5630;49.342;10.802;2022-08-21T15:08:21;6.93;;;3.67;;
11151;SDS011;5630;49.342;10.802;2022-08-21T15:10:47;5.27;;;3.30;;
11151;SDS011;5630;49.342;10.802;2022-08-21T15:13:13;3.53;;;3.23;;
11151;SDS011;5630;49.342;10.802;2022-08-21T15:15:41;3.60;;;3.30;;
11151;SDS011;5630;49.342;10.802;2022-08-21T15:18:09;3.10;;;2.90;;
11151;SDS011;5630;49.342;10.802;2022-08-21T15:20:35;3.53;;;3.23;;
11151;SDS011;5630;49.342;10.802;2022-08-21T15:23:01;3.27;;;2.80;;
11151;SDS011;5630;49.342;10.802;2022-08-21T15:25:27;3.57;;;2.97;;
11151;SDS011;5630;49.342;10.802;2022-08-21T15:27:53;4.93;;;3.57;;
11151;SDS011;5630;49.342;10.802;2022-08-21T15:30:19;4.03;;;3.47;;
11151;SDS011;5630;49.342;10.802;2022-08-21T15:32:44;3.30;;;3.00;;
11151;SDS011;5630;49.342;10.802;2022-08-21T15:35:10;3.57;;;3.30;;
11151;SDS011;5630;49.342;10.802;2022-08-21T15:37:35;3.47;;;3.03;;
11151;SDS011;5630;49.342;10.802;2022-08-21T15:40:01;3.40;;;2.60;;
11151;SDS011;5630;49.342;10.802;2022-08-21T15:42:28;3.10;;;2.73;;
11151;SDS011;5630;49.342;10.802;2022-08-21T15:44:54;3.77;;;3.03;;
11151;SDS011;5630;49.342;10.802;2022-08-21T15:47:22;2.87;;;2.57;;
11151;SDS011;5630;49.342;10.802;2022-08-21T15:49:53;4.73;;;2.90;;
11151;SDS011;5630;49.342;10.802;2022-08-21T15:52:19;5.33;;;3.10;;
11151;SDS011;5630;49.342;10.802;2022-08-21T15:54:46;3.63;;;2.90;;
11151;SDS011;5630;49.342;10.802;2022-08-21T15:57:13;5.37;;;2.80;;
11151;SDS011;5630;49.342;10.802;2022-08-21T15:59:42;2.90;;;2.70;;
11151;SDS011;5630;49.342;10.802;2022-08-21T16:02:27;2.70;;;2.50;;
11151;SDS011;5630;49.342;10.802;2022-08-21T16:04:55;2.90;;;2.70;;
11151;SDS011;5630;49.342;10.802;2022-08-21T16:07:21;3.77;;;2.60;;
11151;SDS011;5630;49.342;10.802;2022-08-21T16:09:46;3.10;;;2.80;;
11151;SDS011;5630;49.342;10.802;2022-08-21T16:12:13;5.57;;;2.63;;